createdAt,value
2022-08-28T00:00:55.209Z,7.50
2022-08-28T00:01:57.094Z,7.40
2022-08-28T00:02:58.938Z,7.88
2022-08-28T00:04:01.079Z,7.88
2022-08-28T00:05:02.729Z,8.75
2022-08-28T00:06:04.815Z,7.97
2022-08-28T00:07:06.948Z,8.05
2022-08-28T00:08:10.889Z,7.70
2022-08-28T00:09:12.724Z,7.63
2022-08-28T00:10:16.867Z,7.70
2022-08-28T00:11:20.051Z,8.27
2022-08-28T00:12:21.767Z,8.40
2022-08-28T00:13:25.475Z,7.60
2022-08-28T00:14:27.272Z,7.43
2022-08-28T00:15:34.984Z,8.23
2022-08-28T00:16:36.924Z,6.97
2022-08-28T00:17:38.586Z,7.97
2022-08-28T00:18:40.507Z,7.88
2022-08-28T00:19:41.993Z,7.80
2022-08-28T00:20:43.793Z,8.23
2022-08-28T00:21:45.674Z,8.63
2022-08-28T00:22:48.543Z,8.20
2022-08-28T00:24:51.453Z,7.80
2022-08-28T00:25:56.925Z,8.38
2022-08-28T00:27:17.296Z,8.20
2022-08-28T00:28:23.705Z,8.55
2022-08-28T00:29:26.012Z,8.15
2022-08-28T00:30:31.790Z,8.75
2022-08-28T00:31:34.996Z,8.02
2022-08-28T00:32:36.638Z,6.90
2022-08-28T00:33:38.081Z,8.25
2022-08-28T00:34:39.712Z,8.38
2022-08-28T00:35:41.979Z,7.72
2022-08-28T00:36:43.799Z,8.07
2022-08-28T00:37:46.481Z,9.68
2022-08-28T00:38:50.492Z,8.02
2022-08-28T00:39:52.065Z,8.73
2022-08-28T00:40:56.900Z,7.97
2022-08-28T00:42:00.177Z,8.55
2022-08-28T00:43:04.876Z,8.07
2022-08-28T00:44:14.099Z,7.88
2022-08-28T00:45:16.929Z,8.50
2022-08-28T00:47:25.181Z,7.43
2022-08-28T00:48:27.343Z,7.93
2022-08-28T00:49:32.174Z,8.05
2022-08-28T00:50:56.877Z,8.00
2022-08-28T00:52:06.156Z,8.48
2022-08-28T00:53:07.688Z,7.82
2022-08-28T00:54:09.648Z,7.88
2022-08-28T00:55:14.318Z,7.90
2022-08-28T00:56:19.048Z,7.78
2022-08-28T00:57:37.307Z,7.90
2022-08-28T00:58:40.260Z,7.80
2022-08-28T00:59:41.974Z,7.82
2022-08-28T01:00:43.754Z,8.40
2022-08-28T01:01:48.114Z,8.98
2022-08-28T01:02:49.651Z,7.72
2022-08-28T01:03:51.201Z,8.00
2022-08-28T01:04:52.813Z,8.55
2022-08-28T01:05:54.393Z,8.00
2022-08-28T01:06:57.928Z,7.85
2022-08-28T01:08:01.233Z,7.65
2022-08-28T01:09:04.408Z,8.60
2022-08-28T01:10:11.262Z,9.13
2022-08-28T01:11:14.361Z,8.52
2022-08-28T01:12:21.185Z,8.50
2022-08-28T01:13:24.222Z,8.30
2022-08-28T01:14:26.957Z,8.00
2022-08-28T01:15:32.854Z,8.23
2022-08-28T01:16:35.205Z,8.88
2022-08-28T01:17:37.489Z,8.18
2022-08-28T01:18:46.169Z,8.60
2022-08-28T01:19:56.547Z,6.93
2022-08-28T01:21:16.851Z,7.60
2022-08-28T01:22:26.109Z,8.57
2022-08-28T01:24:07.502Z,8.25
2022-08-28T01:25:13.343Z,8.05
2022-08-28T01:26:14.980Z,8.05
2022-08-28T01:27:17.144Z,8.68
2022-08-28T01:28:18.751Z,8.00
2022-08-28T01:29:20.886Z,7.38
2022-08-28T01:30:24.217Z,8.60
2022-08-28T01:31:28.666Z,7.88
2022-08-28T01:32:41.108Z,8.23
2022-08-28T01:33:43.806Z,7.60
2022-08-28T01:34:45.239Z,8.43
2022-08-28T01:35:47.945Z,8.60
2022-08-28T01:36:49.491Z,8.23
2022-08-28T01:37:51.820Z,7.80
2022-08-28T01:39:01.352Z,8.80
2022-08-28T01:40:05.422Z,7.50
2022-08-28T01:41:07.357Z,7.28
2022-08-28T01:42:09.683Z,7.97
2022-08-28T01:43:11.865Z,7.65
2022-08-28T01:44:15.296Z,7.78
2022-08-28T01:45:20.954Z,8.27
2022-08-28T01:46:22.731Z,7.57
2022-08-28T01:47:24.540Z,7.53
2022-08-28T01:48:26.583Z,8.75
2022-08-28T01:49:29.522Z,7.63
2022-08-28T01:50:32.026Z,7.40
2022-08-28T01:51:35.215Z,7.43
2022-08-28T01:52:39.879Z,8.07
2022-08-28T01:53:42.083Z,7.78
2022-08-28T01:54:46.716Z,7.93
2022-08-28T01:55:48.171Z,7.47
2022-08-28T01:56:49.707Z,7.75
2022-08-28T01:57:54.261Z,7.85
2022-08-28T01:58:55.994Z,7.43
2022-08-28T01:59:57.515Z,7.85
2022-08-28T02:00:59.057Z,7.35
2022-08-28T02:02:01.539Z,7.32
2022-08-28T02:03:03.897Z,7.47
2022-08-28T02:04:06.008Z,7.60
2022-08-28T02:05:09.322Z,8.10
2022-08-28T02:06:12.105Z,7.97
2022-08-28T02:08:16.287Z,7.95
2022-08-28T02:09:17.894Z,7.30
2022-08-28T02:10:24.615Z,8.07
2022-08-28T02:11:29.339Z,8.25
2022-08-28T02:12:31.382Z,7.65
2022-08-28T02:13:35.103Z,7.80
2022-08-28T02:14:36.742Z,7.47
2022-08-28T02:15:39.739Z,7.05
2022-08-28T02:16:41.262Z,7.25
2022-08-28T02:17:43.071Z,7.38
2022-08-28T02:18:45.018Z,8.30
2022-08-28T02:19:46.567Z,8.05
2022-08-28T02:20:48.107Z,8.07
2022-08-28T02:21:49.647Z,7.57
2022-08-28T02:22:51.847Z,8.07
2022-08-28T02:23:53.595Z,7.95
2022-08-28T02:24:55.136Z,8.00
2022-08-28T02:25:56.638Z,7.90
2022-08-28T02:26:58.495Z,8.10
2022-08-28T02:28:00.245Z,8.02
2022-08-28T02:29:01.745Z,7.38
2022-08-28T02:30:05.582Z,7.65
2022-08-28T02:31:09.410Z,7.90
2022-08-28T02:32:11.686Z,6.97
2022-08-28T02:33:13.290Z,7.72
2022-08-28T02:34:14.935Z,8.02
2022-08-28T02:35:18.913Z,7.85
2022-08-28T02:36:20.597Z,7.80
2022-08-28T02:37:24.671Z,7.55
2022-08-28T02:38:26.819Z,7.72
2022-08-28T02:39:28.579Z,8.18
2022-08-28T02:40:30.178Z,7.75
2022-08-28T02:41:32.383Z,7.80
2022-08-28T02:42:34.278Z,7.97
2022-08-28T02:43:35.985Z,7.28
2022-08-28T02:44:37.571Z,7.22
2022-08-28T02:45:39.141Z,7.57
2022-08-28T02:46:40.968Z,7.80
2022-08-28T02:47:44.341Z,7.88
2022-08-28T02:48:45.872Z,8.02
2022-08-28T02:49:47.399Z,7.78
2022-08-28T02:50:48.904Z,7.90
2022-08-28T02:51:51.635Z,8.05
2022-08-28T02:52:53.694Z,7.70
2022-08-28T02:53:55.247Z,7.63
2022-08-28T02:54:56.691Z,7.63
2022-08-28T02:56:00.573Z,8.63
2022-08-28T02:57:02.524Z,7.85
2022-08-28T02:58:04.090Z,8.32
2022-08-28T02:59:06.408Z,7.63
2022-08-28T03:00:12.823Z,7.68
2022-08-28T03:01:15.912Z,7.68
2022-08-28T03:02:17.536Z,7.65
2022-08-28T03:03:19.441Z,7.80
2022-08-28T03:04:20.911Z,8.38
2022-08-28T03:05:24.269Z,7.78
2022-08-28T03:06:26.071Z,7.53
2022-08-28T03:07:29.331Z,8.50
2022-08-28T03:08:32.317Z,8.13
2022-08-28T03:09:34.122Z,7.68
2022-08-28T03:10:35.723Z,8.00
2022-08-28T03:11:37.260Z,7.72
2022-08-28T03:12:39.184Z,7.95
2022-08-28T03:13:42.021Z,7.95
2022-08-28T03:15:47.078Z,8.15
2022-08-28T03:16:53.573Z,7.45
2022-08-28T03:17:55.309Z,7.75
2022-08-28T03:18:57.444Z,8.18
2022-08-28T03:19:59.116Z,8.90
2022-08-28T03:21:01.394Z,7.90
2022-08-28T03:22:02.948Z,7.60
2022-08-28T03:23:23.090Z,8.05
2022-08-28T03:24:25.084Z,7.55
2022-08-28T03:25:28.178Z,7.15
2022-08-28T03:26:30.377Z,7.30
2022-08-28T03:27:31.902Z,7.57
2022-08-28T03:28:38.304Z,8.13
2022-08-28T03:29:39.827Z,8.35
2022-08-28T03:30:41.365Z,8.05
2022-08-28T03:31:43.295Z,8.40
2022-08-28T03:32:44.897Z,8.52
2022-08-28T03:33:47.382Z,7.97
2022-08-28T03:34:49.546Z,8.32
2022-08-28T03:35:51.059Z,7.45
2022-08-28T03:36:52.986Z,8.25
2022-08-28T03:37:54.584Z,8.10
2022-08-28T03:38:59.283Z,7.63
2022-08-28T03:40:00.857Z,7.85
2022-08-28T03:41:02.495Z,7.93
2022-08-28T03:42:04.861Z,7.82
2022-08-28T03:44:09.247Z,8.48
2022-08-28T03:45:11.650Z,7.90
2022-08-28T03:46:16.701Z,9.10
2022-08-28T03:47:18.225Z,7.97
2022-08-28T03:48:24.390Z,8.00
2022-08-28T03:49:26.027Z,7.55
2022-08-28T03:50:29.765Z,7.55
2022-08-28T03:51:34.110Z,7.47
2022-08-28T03:52:35.617Z,7.70
2022-08-28T03:53:38.015Z,7.28
2022-08-28T03:54:39.534Z,8.52
2022-08-28T03:55:42.743Z,7.78
2022-08-28T03:56:44.554Z,7.78
2022-08-28T03:57:46.451Z,8.02
2022-08-28T03:58:54.294Z,7.78
2022-08-28T03:59:56.045Z,8.27
2022-08-28T04:00:57.612Z,7.65
2022-08-28T04:01:59.490Z,7.60
2022-08-28T04:03:01.085Z,7.53
2022-08-28T04:04:02.886Z,8.35
2022-08-28T04:05:05.598Z,7.32
2022-08-28T04:06:07.754Z,7.65
2022-08-28T04:07:09.218Z,8.20
2022-08-28T04:08:15.975Z,7.43
2022-08-28T04:09:17.455Z,7.30
2022-08-28T04:10:19.975Z,7.03
2022-08-28T04:11:22.515Z,7.88
2022-08-28T04:12:24.006Z,7.72
2022-08-28T04:13:25.552Z,8.00
2022-08-28T04:14:27.392Z,7.70
2022-08-28T04:15:29.197Z,8.05
2022-08-28T04:16:31.840Z,7.93
2022-08-28T04:17:33.394Z,7.75
2022-08-28T04:18:35.730Z,8.05
2022-08-28T04:19:38.088Z,7.65
2022-08-28T04:20:39.597Z,8.07
2022-08-28T04:21:41.421Z,7.65
2022-08-28T04:22:43.387Z,7.93
2022-08-28T04:23:47.631Z,8.48
2022-08-28T04:24:49.123Z,7.22
2022-08-28T04:25:50.628Z,7.57
2022-08-28T04:26:52.588Z,7.70
2022-08-28T04:27:54.105Z,7.80
2022-08-28T04:28:56.057Z,7.47
2022-08-28T04:29:57.817Z,7.55
2022-08-28T04:30:59.694Z,7.35
2022-08-28T04:32:02.478Z,8.10
2022-08-28T04:33:06.161Z,7.53
2022-08-28T04:34:09.270Z,7.80
2022-08-28T04:35:12.146Z,7.45
2022-08-28T04:37:19.025Z,7.25
2022-08-28T04:38:21.449Z,6.82
2022-08-28T04:39:22.926Z,7.20
2022-08-28T04:40:24.564Z,7.68
2022-08-28T04:41:26.939Z,7.85
2022-08-28T04:42:28.395Z,7.35
2022-08-28T04:43:29.897Z,7.22
2022-08-28T04:44:32.251Z,7.68
2022-08-28T04:45:38.216Z,7.68
2022-08-28T04:46:40.088Z,7.40
2022-08-28T04:47:41.632Z,8.30
2022-08-28T04:48:43.403Z,7.55
2022-08-28T04:49:44.970Z,7.90
2022-08-28T04:50:49.482Z,7.32
2022-08-28T04:51:51.282Z,8.00
2022-08-28T04:52:52.751Z,7.47
2022-08-28T04:53:54.315Z,7.55
2022-08-28T04:54:55.895Z,8.02
2022-08-28T04:55:59.423Z,7.70
2022-08-28T04:57:01.574Z,7.60
2022-08-28T04:58:03.130Z,7.57
2022-08-28T04:59:04.693Z,7.63
2022-08-28T05:00:07.657Z,7.85
2022-08-28T05:01:13.158Z,7.28
2022-08-28T05:02:14.846Z,7.35
2022-08-28T05:03:17.712Z,7.28
2022-08-28T05:05:21.288Z,7.40
2022-08-28T05:06:27.229Z,7.57
2022-08-28T05:07:29.767Z,7.75
2022-08-28T05:08:31.902Z,7.43
2022-08-28T05:09:34.907Z,7.20
2022-08-28T05:10:36.554Z,6.80
2022-08-28T05:11:38.120Z,7.22
2022-08-28T05:12:39.570Z,7.50
2022-08-28T05:13:41.664Z,7.90
2022-08-28T05:14:43.432Z,7.20
2022-08-28T05:15:48.153Z,8.32
2022-08-28T05:16:53.029Z,7.97
2022-08-28T05:17:55.058Z,6.95
2022-08-28T05:19:00.271Z,7.75
2022-08-28T05:20:02.208Z,8.00
2022-08-28T05:21:04.821Z,7.57
2022-08-28T05:22:06.320Z,7.70
2022-08-28T05:23:09.393Z,7.55
2022-08-28T05:24:11.571Z,7.43
2022-08-28T05:25:14.939Z,7.60
2022-08-28T05:26:18.466Z,7.60
2022-08-28T05:27:20.109Z,8.35
2022-08-28T05:28:24.448Z,7.20
2022-08-28T05:29:25.943Z,7.50
2022-08-28T05:30:27.531Z,7.95
2022-08-28T05:31:32.145Z,7.95
2022-08-28T05:32:34.357Z,8.23
2022-08-28T05:33:35.886Z,9.38
2022-08-28T05:34:37.347Z,10.27
2022-08-28T05:35:42.184Z,12.75
2022-08-28T05:36:43.901Z,12.50
2022-08-28T05:37:45.536Z,10.60
2022-08-28T05:38:47.010Z,9.57
2022-08-28T05:39:48.728Z,7.65
2022-08-28T05:40:50.239Z,8.55
2022-08-28T05:41:51.909Z,8.45
2022-08-28T05:42:53.453Z,8.02
2022-08-28T05:43:55.104Z,7.07
2022-08-28T05:44:58.838Z,7.45
2022-08-28T05:46:03.652Z,7.60
2022-08-28T05:47:07.474Z,9.13
2022-08-28T05:48:09.679Z,8.80
2022-08-28T05:49:13.136Z,7.85
2022-08-28T05:50:15.484Z,8.13
2022-08-28T05:51:22.372Z,9.05
2022-08-28T05:52:24.644Z,9.65
2022-08-28T05:53:26.161Z,9.88
2022-08-28T05:54:29.167Z,7.85
2022-08-28T05:55:30.912Z,8.00
2022-08-28T05:56:38.885Z,7.70
2022-08-28T05:57:41.124Z,7.32
2022-08-28T05:58:42.598Z,7.18
2022-08-28T05:59:45.378Z,7.22
2022-08-28T06:01:50.007Z,7.20
2022-08-28T06:03:59.732Z,6.55
2022-08-28T06:05:01.967Z,7.05
2022-08-28T06:06:05.187Z,7.47
2022-08-28T06:07:06.666Z,7.25
2022-08-28T06:08:08.265Z,6.72
2022-08-28T06:09:14.390Z,7.40
2022-08-28T06:10:15.959Z,7.95
2022-08-28T06:11:22.307Z,7.70
2022-08-28T06:12:26.009Z,7.18
2022-08-28T06:13:28.491Z,7.30
2022-08-28T06:14:31.262Z,6.70
2022-08-28T06:15:33.149Z,7.53
2022-08-28T06:16:38.295Z,7.55
2022-08-28T06:17:40.318Z,7.80
2022-08-28T06:18:42.051Z,6.90
2022-08-28T06:19:43.574Z,6.75
2022-08-28T06:20:46.963Z,6.90
2022-08-28T06:21:51.880Z,7.10
2022-08-28T06:22:53.532Z,8.27
2022-08-28T06:23:55.375Z,7.03
2022-08-28T06:24:56.872Z,6.45
2022-08-28T06:25:59.456Z,6.95
2022-08-28T06:27:00.934Z,7.30
2022-08-28T06:28:02.614Z,7.50
2022-08-28T06:29:07.979Z,6.95
2022-08-28T06:30:10.236Z,6.60
2022-08-28T06:31:23.610Z,7.10
2022-08-28T06:33:28.450Z,6.28
2022-08-28T06:34:30.460Z,7.57
2022-08-28T06:35:32.138Z,6.88
2022-08-28T06:36:36.717Z,7.13
2022-08-28T06:37:38.199Z,7.18
2022-08-28T06:38:39.786Z,6.57
2022-08-28T06:39:41.399Z,6.70
2022-08-28T06:40:46.326Z,6.60
2022-08-28T06:41:47.772Z,6.95
2022-08-28T06:42:49.358Z,7.03
2022-08-28T06:43:51.145Z,6.63
2022-08-28T06:44:52.605Z,6.35
2022-08-28T06:45:56.415Z,6.57
2022-08-28T06:46:59.024Z,6.25
2022-08-28T06:48:00.547Z,6.53
2022-08-28T06:49:04.110Z,7.47
2022-08-28T06:50:06.193Z,6.63
2022-08-28T06:51:10.038Z,7.10
2022-08-28T06:52:11.513Z,7.20
2022-08-28T06:53:15.248Z,6.60
2022-08-28T06:54:22.378Z,6.60
2022-08-28T06:55:25.588Z,5.93
2022-08-28T06:56:27.578Z,6.20
2022-08-28T06:57:29.049Z,6.85
2022-08-28T06:58:31.179Z,6.32
2022-08-28T06:59:32.815Z,6.40
2022-08-28T07:00:36.259Z,6.43
2022-08-28T07:01:38.088Z,6.47
2022-08-28T07:02:39.683Z,6.63
2022-08-28T07:03:42.535Z,6.40
2022-08-28T07:04:45.876Z,5.72
2022-08-28T07:05:47.317Z,6.05
2022-08-28T07:06:54.069Z,11.48
2022-08-28T07:07:56.180Z,10.48
2022-08-28T07:08:57.638Z,8.93
2022-08-28T07:09:59.108Z,11.38
2022-08-28T07:11:09.760Z,13.00
2022-08-28T07:12:15.329Z,22.85
2022-08-28T07:13:16.775Z,14.48
2022-08-28T07:14:18.361Z,8.20
2022-08-28T07:15:19.979Z,6.80
2022-08-28T07:16:24.651Z,6.47
2022-08-28T07:17:26.164Z,6.32
2022-08-28T07:18:27.716Z,6.45
2022-08-28T07:19:29.222Z,6.03
2022-08-28T07:20:30.667Z,6.18
2022-08-28T07:21:38.205Z,6.15
2022-08-28T07:22:43.781Z,5.65
2022-08-28T07:23:46.050Z,5.85
2022-08-28T07:24:47.581Z,5.90
2022-08-28T07:25:49.029Z,5.85
2022-08-28T07:26:50.903Z,5.97
2022-08-28T07:27:52.610Z,6.28
2022-08-28T07:29:10.465Z,6.03
2022-08-28T07:30:13.349Z,6.40
2022-08-28T07:31:21.052Z,5.80
2022-08-28T07:32:22.759Z,6.75
2022-08-28T07:33:24.657Z,6.10
2022-08-28T07:34:26.988Z,5.70
2022-08-28T07:36:30.705Z,5.65
2022-08-28T07:37:32.148Z,5.80
2022-08-28T07:38:35.823Z,5.43
2022-08-28T07:39:37.259Z,6.45
2022-08-28T07:40:38.869Z,5.82
2022-08-28T07:41:43.160Z,5.35
2022-08-28T07:43:03.331Z,5.55
2022-08-28T07:44:23.687Z,6.07
2022-08-28T07:45:26.261Z,5.80
2022-08-28T07:46:29.211Z,5.50
2022-08-28T07:47:31.623Z,5.72
2022-08-28T07:48:40.367Z,6.38
2022-08-28T07:49:41.918Z,5.80
2022-08-28T07:50:43.358Z,5.65
2022-08-28T07:51:46.725Z,5.30
2022-08-28T07:52:48.558Z,5.45
2022-08-28T07:53:50.776Z,5.25
2022-08-28T07:54:52.620Z,5.53
2022-08-28T07:55:54.082Z,5.72
2022-08-28T07:56:55.583Z,5.60
2022-08-28T07:57:57.079Z,6.10
2022-08-28T07:59:01.025Z,6.28
2022-08-28T08:00:02.517Z,5.68
2022-08-28T08:01:04.232Z,6.22
2022-08-28T08:02:07.137Z,5.93
2022-08-28T08:04:12.799Z,6.60
2022-08-28T08:05:14.471Z,5.70
2022-08-28T08:06:16.237Z,6.40
2022-08-28T08:07:18.128Z,5.80
2022-08-28T08:08:19.859Z,5.47
2022-08-28T08:09:22.219Z,5.75
2022-08-28T08:10:24.037Z,5.75
2022-08-28T08:11:27.016Z,6.15
2022-08-28T08:12:35.009Z,6.05
2022-08-28T08:13:39.253Z,6.32
2022-08-28T08:15:43.271Z,5.85
2022-08-28T08:16:46.861Z,6.07
2022-08-28T08:17:48.486Z,5.57
2022-08-28T08:18:51.105Z,6.82
2022-08-28T08:19:52.591Z,6.85
2022-08-28T08:20:54.131Z,6.95
2022-08-28T08:21:56.998Z,7.07
2022-08-28T08:23:59.864Z,9.13
2022-08-28T08:25:04.020Z,7.45
2022-08-28T08:26:08.439Z,6.35
2022-08-28T08:27:10.888Z,7.20
2022-08-28T08:28:12.403Z,6.25
2022-08-28T08:29:15.093Z,6.40
2022-08-28T08:30:16.632Z,6.03
2022-08-28T08:31:24.653Z,5.57
2022-08-28T08:32:27.120Z,6.15
2022-08-28T08:33:28.573Z,6.90
2022-08-28T08:34:30.649Z,5.80
2022-08-28T08:35:32.103Z,5.50
2022-08-28T08:36:35.885Z,5.43
2022-08-28T08:37:37.743Z,5.60
2022-08-28T08:38:39.280Z,5.68
2022-08-28T08:39:42.448Z,5.82
2022-08-28T08:40:44.252Z,5.68
2022-08-28T08:41:49.847Z,5.40
2022-08-28T08:42:57.050Z,5.05
2022-08-28T08:44:32.505Z,4.90
2022-08-28T08:45:36.388Z,4.78
2022-08-28T08:46:49.210Z,5.25
2022-08-28T08:47:54.085Z,5.30
2022-08-28T08:48:57.657Z,4.95
2022-08-28T08:50:02.618Z,5.57
2022-08-28T08:51:20.570Z,5.43
2022-08-28T08:52:46.745Z,5.22
2022-08-28T08:54:04.075Z,5.32
2022-08-28T08:55:23.458Z,5.22
2022-08-28T08:56:25.063Z,5.13
2022-08-28T08:57:37.713Z,4.90
2022-08-28T08:58:47.827Z,5.22
2022-08-28T08:59:50.787Z,5.20
2022-08-28T09:01:23.586Z,4.72
2022-08-28T09:02:32.554Z,5.25
2022-08-28T09:05:06.630Z,6.07
2022-08-28T09:06:21.346Z,19.73
2022-08-28T09:07:30.156Z,13.70
2022-08-28T09:08:39.584Z,11.70
2022-08-28T09:09:44.639Z,7.65
2022-08-28T09:10:55.072Z,6.50
2022-08-28T09:12:00.923Z,5.30
2022-08-28T09:13:32.174Z,5.15
2022-08-28T09:14:38.027Z,5.10
2022-08-28T09:15:42.652Z,4.80
2022-08-28T09:16:48.247Z,4.93
2022-08-28T09:17:54.909Z,4.78
2022-08-28T09:18:59.662Z,4.95
2022-08-28T09:20:01.273Z,5.03
2022-08-28T09:21:03.122Z,5.18
2022-08-28T09:22:05.098Z,4.85
2022-08-28T09:23:12.796Z,4.95
2022-08-28T09:24:32.333Z,4.82
2022-08-28T09:26:01.755Z,4.75
2022-08-28T09:27:12.311Z,4.75
2022-08-28T09:28:21.893Z,4.95
2022-08-28T09:29:33.870Z,5.25
2022-08-28T09:30:37.520Z,5.35
2022-08-28T09:31:41.221Z,5.00
2022-08-28T09:32:56.308Z,5.32
2022-08-28T09:34:18.177Z,5.38
2022-08-28T09:35:28.492Z,5.07
2022-08-28T09:36:37.886Z,5.75
2022-08-28T09:37:41.436Z,4.88
2022-08-28T09:38:43.482Z,4.97
2022-08-28T09:39:48.787Z,5.00
2022-08-28T09:41:25.452Z,4.75
2022-08-28T09:42:45.559Z,5.22
2022-08-28T09:43:47.222Z,4.60
2022-08-28T09:44:51.921Z,4.78
2022-08-28T09:46:08.011Z,4.72
2022-08-28T09:47:09.490Z,4.70
2022-08-28T09:48:24.415Z,4.90
2022-08-28T09:49:30.459Z,4.50
2022-08-28T09:50:37.730Z,5.20
2022-08-28T09:51:40.055Z,4.82
2022-08-28T09:52:41.779Z,4.75
2022-08-28T09:53:59.746Z,4.82
2022-08-28T09:55:01.445Z,4.55
2022-08-28T09:56:05.738Z,4.60
2022-08-28T09:57:08.060Z,4.50
2022-08-28T09:58:09.901Z,4.20
2022-08-28T09:59:16.280Z,4.80
2022-08-28T10:00:17.974Z,5.82
2022-08-28T10:01:54.931Z,4.50
2022-08-28T10:03:14.530Z,4.18
2022-08-28T10:04:17.125Z,4.57
2022-08-28T10:05:29.335Z,4.10
2022-08-28T10:06:35.671Z,4.32
2022-08-28T10:07:52.304Z,5.07
2022-08-28T10:09:11.892Z,4.68
2022-08-28T10:10:17.331Z,7.05
2022-08-28T10:11:36.716Z,8.52
2022-08-28T10:12:59.566Z,4.80
2022-08-28T10:14:14.339Z,4.88
2022-08-28T10:15:46.529Z,4.40
2022-08-28T10:16:55.606Z,4.47
2022-08-28T10:18:12.523Z,4.70
2022-08-28T10:19:47.313Z,5.05
2022-08-28T10:21:10.824Z,4.85
2022-08-28T10:22:37.094Z,5.00
2022-08-28T10:23:58.638Z,4.90
2022-08-28T10:25:05.080Z,4.60
2022-08-28T10:26:21.917Z,4.35
2022-08-28T10:27:39.103Z,4.47
2022-08-28T10:28:58.246Z,5.40
2022-08-28T10:30:13.465Z,4.53
2022-08-28T10:31:15.493Z,4.30
2022-08-28T10:32:54.788Z,4.78
2022-08-28T10:34:11.231Z,4.43
2022-08-28T10:35:23.907Z,4.63
2022-08-28T10:36:34.701Z,4.65
2022-08-28T10:38:06.148Z,4.53
2022-08-28T10:39:27.260Z,4.72
2022-08-28T10:40:34.694Z,4.70
2022-08-28T10:41:41.006Z,4.80
2022-08-28T10:42:49.447Z,4.60
2022-08-28T10:43:54.110Z,5.50
2022-08-28T10:45:01.155Z,4.57
2022-08-28T10:46:35.391Z,4.55
2022-08-28T10:47:42.894Z,4.60
2022-08-28T10:48:53.690Z,4.28
2022-08-28T10:50:01.979Z,4.70
2022-08-28T10:51:10.999Z,4.60
2022-08-28T10:52:22.051Z,4.53
2022-08-28T10:53:31.050Z,4.22
2022-08-28T10:54:38.590Z,4.40
2022-08-28T10:55:52.562Z,4.18
2022-08-28T10:57:00.826Z,4.97
2022-08-28T10:58:25.139Z,6.05
2022-08-28T10:59:32.364Z,7.60
2022-08-28T11:00:34.975Z,5.93
2022-08-28T11:01:40.030Z,6.10
2022-08-28T11:02:45.932Z,4.78
2022-08-28T11:03:51.340Z,4.93
2022-08-28T11:04:58.489Z,4.65
2022-08-28T11:06:08.347Z,4.88
2022-08-28T11:07:14.299Z,4.85
2022-08-28T11:08:29.471Z,4.88
2022-08-28T11:09:36.065Z,4.43
2022-08-28T11:10:38.698Z,4.43
2022-08-28T11:11:40.089Z,4.53
2022-08-28T11:12:43.750Z,4.80
2022-08-28T11:13:59.726Z,4.40
2022-08-28T11:15:38.040Z,4.28
2022-08-28T11:16:45.364Z,4.40
2022-08-28T11:17:47.765Z,4.38
2022-08-28T11:19:08.001Z,4.60
2022-08-28T11:20:22.805Z,4.50
2022-08-28T11:21:30.352Z,4.35
2022-08-28T11:22:55.277Z,4.80
2022-08-28T11:24:05.921Z,4.65
2022-08-28T11:25:41.497Z,4.50
2022-08-28T11:26:59.131Z,4.20
2022-08-28T11:28:19.080Z,4.43
2022-08-28T11:30:00.043Z,3.90
2022-08-28T11:31:01.482Z,4.47
2022-08-28T11:32:30.961Z,4.50
2022-08-28T11:33:47.012Z,4.97
2022-08-28T11:35:00.827Z,4.50
2022-08-28T11:36:04.144Z,4.70
2022-08-28T11:37:05.708Z,4.70
2022-08-28T11:38:08.506Z,5.00
2022-08-28T11:40:52.299Z,4.68
2022-08-28T11:42:11.357Z,4.50
2022-08-28T11:43:14.246Z,4.50
2022-08-28T11:44:24.895Z,4.47
2022-08-28T11:45:50.812Z,4.75
2022-08-28T11:46:55.501Z,4.95
2022-08-28T11:47:57.850Z,5.28
2022-08-28T11:49:01.671Z,4.95
2022-08-28T11:50:14.923Z,5.93
2022-08-28T11:51:34.776Z,8.15
2022-08-28T11:52:43.376Z,5.65
2022-08-28T11:53:51.984Z,5.07
2022-08-28T11:55:24.737Z,5.55
2022-08-28T11:57:05.418Z,4.78
2022-08-28T11:58:29.998Z,5.00
2022-08-28T11:59:53.348Z,4.97
2022-08-28T12:01:10.768Z,4.90
2022-08-28T12:02:40.661Z,4.63
2022-08-28T12:03:53.681Z,4.60
2022-08-28T12:04:55.635Z,5.30
2022-08-28T12:06:00.276Z,5.13
2022-08-28T12:07:13.995Z,5.65
2022-08-28T12:08:57.767Z,5.00
2022-08-28T12:10:04.253Z,5.20
2022-08-28T12:11:06.635Z,5.03
2022-08-28T12:12:11.124Z,4.15
2022-08-28T12:13:49.503Z,5.03
2022-08-28T12:15:08.617Z,4.70
2022-08-28T12:16:10.187Z,4.88
2022-08-28T12:17:14.777Z,4.43
2022-08-28T12:18:39.124Z,4.60
2022-08-28T12:19:55.421Z,4.68
2022-08-28T12:21:01.658Z,5.10
2022-08-28T12:22:14.076Z,8.13
2022-08-28T12:23:58.925Z,22.83
2022-08-28T12:25:04.501Z,5.00
2022-08-28T12:26:36.360Z,4.68
2022-08-28T12:27:38.727Z,4.47
2022-08-28T12:28:54.267Z,4.60
2022-08-28T12:29:58.676Z,4.68
2022-08-28T12:31:06.341Z,4.50
2022-08-28T12:32:45.572Z,4.43
2022-08-28T12:34:04.739Z,4.28
2022-08-28T12:35:17.152Z,4.20
2022-08-28T12:36:26.667Z,4.40
2022-08-28T12:37:51.597Z,4.60
2022-08-28T12:38:58.505Z,4.15
2022-08-28T12:40:15.358Z,4.13
2022-08-28T12:41:18.696Z,4.30
2022-08-28T12:42:29.905Z,4.22
2022-08-28T12:44:36.420Z,4.40
2022-08-28T12:45:42.426Z,4.38
2022-08-28T12:46:44.475Z,4.13
2022-08-28T12:47:47.709Z,4.40
2022-08-28T12:48:55.102Z,3.97
2022-08-28T12:49:57.042Z,3.95
2022-08-28T12:51:05.915Z,3.83
2022-08-28T12:53:16.267Z,4.18
2022-08-28T12:54:18.228Z,4.28
2022-08-28T12:55:24.323Z,4.72
2022-08-28T12:56:32.920Z,3.88
2022-08-28T12:57:34.921Z,3.85
2022-08-28T12:58:39.423Z,4.18
2022-08-28T12:59:49.907Z,4.10
2022-08-28T13:00:58.824Z,4.50
2022-08-28T13:02:10.263Z,3.95
2022-08-28T13:03:12.037Z,4.40
2022-08-28T13:04:33.736Z,3.88
2022-08-28T13:05:41.285Z,4.43
2022-08-28T13:06:42.996Z,3.78
2022-08-28T13:07:51.923Z,4.63
2022-08-28T13:10:01.108Z,4.10
2022-08-28T13:11:04.392Z,4.05
2022-08-28T13:12:07.427Z,3.92
2022-08-28T13:13:19.865Z,3.80
2022-08-28T13:14:43.315Z,3.70
2022-08-28T13:15:58.546Z,4.00
2022-08-28T13:17:00.967Z,3.65
2022-08-28T13:18:03.163Z,3.85
2022-08-28T13:19:04.648Z,4.28
2022-08-28T13:20:07.389Z,4.10
2022-08-28T13:21:14.711Z,3.85
2022-08-28T13:22:35.738Z,4.10
2022-08-28T13:23:37.482Z,4.65
2022-08-28T13:24:44.326Z,3.92
2022-08-28T13:25:46.065Z,4.00
2022-08-28T13:26:50.441Z,4.10
2022-08-28T13:28:00.521Z,3.95
2022-08-28T13:29:07.693Z,4.15
2022-08-28T13:30:19.985Z,3.70
2022-08-28T13:31:21.483Z,4.18
2022-08-28T13:32:23.848Z,4.15
2022-08-28T13:33:27.135Z,3.83
2022-08-28T13:34:31.423Z,3.80
2022-08-28T13:35:39.890Z,4.07
2022-08-28T13:36:45.325Z,4.10
2022-08-28T13:37:53.524Z,3.88
2022-08-28T13:38:55.169Z,4.28
2022-08-28T13:39:57.092Z,3.83
2022-08-28T13:41:02.777Z,3.83
2022-08-28T13:42:11.174Z,6.00
2022-08-28T13:43:15.495Z,4.85
2022-08-28T13:44:45.836Z,4.13
2022-08-28T13:45:48.845Z,4.00
2022-08-28T13:46:50.334Z,3.88
2022-08-28T13:47:52.864Z,3.45
2022-08-28T13:48:54.310Z,4.10
2022-08-28T13:49:55.741Z,3.58
2022-08-28T13:51:03.534Z,3.88
2022-08-28T13:52:07.674Z,3.80
2022-08-28T13:53:11.652Z,3.95
2022-08-28T13:54:14.270Z,3.85
2022-08-28T13:55:15.724Z,4.05
2022-08-28T13:56:17.671Z,3.60
2022-08-28T13:57:19.251Z,4.03
2022-08-28T13:58:20.776Z,4.13
2022-08-28T13:59:23.415Z,3.80
2022-08-28T14:00:24.898Z,3.42
2022-08-28T14:01:46.623Z,3.83
2022-08-28T14:03:07.119Z,3.67
2022-08-28T14:04:08.599Z,3.90
2022-08-28T14:05:10.210Z,3.95
2022-08-28T14:06:14.812Z,4.00
2022-08-28T14:07:16.954Z,3.55
2022-08-28T14:08:18.541Z,4.00
2022-08-28T14:09:20.390Z,4.00
2022-08-28T14:10:22.847Z,3.78
2022-08-28T14:11:26.319Z,3.70
2022-08-28T14:12:33.373Z,3.90
2022-08-28T14:13:36.247Z,4.07
2022-08-28T14:14:40.022Z,4.72
2022-08-28T14:15:41.577Z,5.50
2022-08-28T14:16:45.462Z,5.10
2022-08-28T14:17:47.198Z,4.68
2022-08-28T14:18:49.185Z,3.97
2022-08-28T14:19:50.818Z,3.92
2022-08-28T14:20:52.689Z,4.05
2022-08-28T14:21:54.216Z,3.75
2022-08-28T14:22:55.786Z,3.72
2022-08-28T14:23:59.087Z,3.88
2022-08-28T14:25:00.778Z,3.90
2022-08-28T14:26:05.730Z,3.75
2022-08-28T14:27:07.328Z,3.60
2022-08-28T14:28:09.075Z,3.45
2022-08-28T14:29:12.885Z,3.47
2022-08-28T14:30:14.813Z,3.70
2022-08-28T14:31:16.435Z,3.50
2022-08-28T14:32:18.458Z,4.18
2022-08-28T14:33:20.712Z,4.05
2022-08-28T14:34:23.503Z,4.00
2022-08-28T14:35:25.223Z,3.90
2022-08-28T14:36:28.797Z,3.95
2022-08-28T14:37:30.653Z,4.65
2022-08-28T14:38:32.181Z,4.00
2022-08-28T14:39:33.668Z,4.47
2022-08-28T14:40:42.810Z,3.90
2022-08-28T14:41:47.380Z,3.75
2022-08-28T14:42:50.971Z,3.60
2022-08-28T14:43:54.149Z,3.60
2022-08-28T14:44:55.747Z,3.97
2022-08-28T14:45:57.319Z,4.00
2022-08-28T14:46:59.562Z,3.90
2022-08-28T14:48:01.040Z,3.97
2022-08-28T14:49:09.052Z,3.75
2022-08-28T14:50:10.825Z,3.65
2022-08-28T14:51:13.060Z,3.60
2022-08-28T14:52:15.082Z,4.35
2022-08-28T14:53:17.146Z,4.30
2022-08-28T14:54:22.120Z,3.75
2022-08-28T14:55:23.611Z,5.20
2022-08-28T14:56:25.411Z,5.70